首页
METAR-TAF:

METAR-TAF

机场 :

Arcata / 尤里卡, 加利福尼亚州, 美国

纬度: 40-58-41N, 经度: 124-06-31W, 海拔: 66米

当前天气观测

该预报发布于20分钟前的23:44 UTC
风速7节,风向南转西南
温度 14°C
湿度 82%
气压 1018 hPa
能見度: 16.1公里
多云层高于600英尺

METAR: KACV 152344Z AUTO 21007KT 10SM BKN006 14/11 A3005 RMK AO2 LTG DSNT E T01390111

时间: 17:04 (00:04 UTC)

预报

该预报发布于24分钟前的23:40 UTC
预报有效从16日的 00点(UTC)到 16日的 24点(UTC)
风速8节,风向南转西南
能見度: 9.7公里
少量云层高于300英尺
散云层高于900英尺
轻雾
从 16日的 0500点(UTC)
风速4节,风向西南
能見度: 0.4公里
阴天层高于200英尺
从 16日的 1600点(UTC)
风速4节,风向南转西南
能見度: 2.4公里
阴天层高于300英尺
轻雾
从 16日的 2000点(UTC)
风速7节,风向西转西南
能見度: 10公里
多云层高于300英尺

TAF: KACV 152340Z 1600/1624 21008KT 6SM BR FEW003 SCT009 FM160500 23004KT 1/4SM FG OVC002 FM161600 21004KT 1 1/2SM BR OVC003 FM162000 24007KT P6SM BKN003

超过4000个机场的气象观测和天气预报(METAR&TAF报告)。

可查询的气象台以黄色和红色小点在地图上表示。

将鼠标移到小点上方,可查看气象台名称。

然后点击查看天气观测和预报。

如需切换地图:点击带黑十字的绿色按钮放大地图;点击带横线的绿色按钮缩小地图;或者点击绿色箭头查看邻近地区的地图。


METAR-TAF: